< < Back
Terminal Aerodrome Forecast


Current Version              Previous Versions:   1  2  3  4  5  6  7  8  9  

Terminal Aerodrome Forecast

025
FTUS42 KFFC 242300
TAFCSG
TAF
KCSG 242332Z 2500/2524 18005KT P6SM SCT070 SCT250
     FM250900 22006KT P6SM BKN050
     FM251200 25009KT P6SM SCT025 BKN050
     FM251500 26010G18KT P6SM BKN025
     FM251800 29012G20KT P6SM SCT040=

Latest METAR

642
SAUS70 KWBC 250300
MTRCSG
METAR KCSG 250251Z AUTO 00000KT 10SM CLR 20/13 A2989 RMK AO2 RAB14E43
SLP118 P0000 60000 T02000128 51003


USA.gov is the U.S. government's official web portal to all federal, state and local government web resources and services.